createdAt,value
2019-02-07T00:04:50.007Z,19.87
2019-02-07T00:07:18.210Z,22.13
2019-02-07T00:09:46.410Z,25.10
2019-02-07T00:12:14.619Z,20.77
2019-02-07T00:14:42.799Z,20.23
2019-02-07T00:17:11.022Z,25.00
2019-02-07T00:19:39.213Z,24.00
2019-02-07T00:22:09.137Z,17.15
2019-02-07T00:24:42.861Z,19.15
2019-02-07T00:27:07.262Z,21.68
2019-02-07T00:29:35.473Z,21.27
2019-02-07T00:32:03.700Z,13.72
2019-02-07T00:34:31.945Z,20.15
2019-02-07T00:37:01.867Z,15.95
2019-02-07T00:39:30.065Z,13.88
2019-02-07T00:41:58.271Z,21.07
2019-02-07T00:47:13.716Z,21.48
2019-02-07T00:49:43.681Z,25.65
2019-02-07T00:52:31.193Z,23.18
2019-02-07T00:54:59.410Z,17.67
2019-02-07T00:57:27.612Z,16.07
2019-02-07T00:59:57.545Z,14.95
2019-02-07T01:02:25.747Z,17.73
2019-02-07T01:04:53.934Z,16.70
2019-02-07T01:07:22.135Z,16.85
2019-02-07T01:09:50.347Z,17.87
2019-02-07T01:12:18.546Z,18.35
2019-02-07T01:14:46.762Z,23.50
2019-02-07T01:17:14.967Z,13.45
2019-02-07T01:19:43.180Z,13.28
2019-02-07T01:22:30.520Z,14.90
2019-02-07T01:24:58.732Z,14.93
2019-02-07T01:27:26.936Z,13.68
2019-02-07T01:30:14.514Z,13.83
2019-02-07T01:32:42.717Z,22.58
2019-02-07T01:35:10.907Z,20.48
2019-02-07T01:37:39.135Z,21.62
2019-02-07T01:45:56.636Z,16.70
2019-02-07T01:48:24.845Z,16.15
2019-02-07T01:50:53.052Z,18.45
2019-02-07T01:53:21.254Z,14.28
2019-02-07T01:55:49.467Z,16.20
2019-02-07T01:58:17.692Z,16.30
2019-02-07T02:00:45.879Z,14.50
2019-02-07T02:03:14.188Z,18.52
2019-02-07T02:05:42.401Z,12.50
2019-02-07T02:08:10.625Z,14.80
2019-02-07T02:10:38.836Z,12.60
2019-02-07T02:13:07.061Z,12.82
2019-02-07T02:15:35.276Z,17.90
2019-02-07T02:18:05.209Z,19.90
2019-02-07T02:20:33.427Z,14.85
2019-02-07T02:23:01.636Z,16.00
2019-02-07T02:25:49.264Z,18.27
2019-02-07T02:28:17.467Z,13.15
2019-02-07T02:30:47.378Z,14.23
2019-02-07T02:33:15.579Z,14.45
2019-02-07T02:36:02.881Z,16.02
2019-02-07T02:38:31.080Z,14.58
2019-02-07T02:40:59.292Z,11.03
2019-02-07T02:43:27.496Z,18.70
2019-02-07T02:45:55.690Z,19.17
2019-02-07T02:48:23.916Z,13.22
2019-02-07T02:51:11.467Z,12.13
2019-02-07T02:53:39.664Z,20.05
2019-02-07T02:56:07.876Z,11.00
2019-02-07T02:59:16.223Z,15.68
2019-02-07T03:04:54.149Z,11.45
2019-02-07T03:07:41.579Z,13.88
2019-02-07T03:10:49.854Z,14.28
2019-02-07T03:13:37.182Z,13.18
2019-02-07T03:19:13.368Z,15.28
2019-02-07T03:22:00.675Z,17.02
2019-02-07T03:24:47.996Z,17.75
2019-02-07T03:27:35.297Z,21.57
2019-02-07T03:30:15.042Z,15.88
2019-02-07T03:35:55.816Z,19.07
2019-02-07T03:38:43.117Z,15.93
2019-02-07T03:44:09.663Z,17.87
2019-02-07T03:46:56.967Z,18.40
2019-02-07T03:52:19.604Z,22.48
2019-02-07T03:57:42.341Z,13.78
2019-02-07T04:03:30.421Z,17.02
2019-02-07T04:06:17.741Z,18.65
2019-02-07T04:09:05.073Z,18.82
2019-02-07T04:11:52.413Z,16.67
2019-02-07T04:14:39.753Z,16.97
2019-02-07T04:22:37.709Z,19.17
2019-02-07T04:25:25.055Z,14.60
2019-02-07T04:28:12.378Z,18.73
2019-02-07T04:30:59.696Z,18.23
2019-02-07T04:33:46.996Z,15.00
2019-02-07T04:36:34.315Z,16.48
2019-02-07T04:42:10.591Z,14.00
2019-02-07T04:44:57.892Z,14.40
2019-02-07T04:47:45.231Z,16.07
2019-02-07T04:50:32.559Z,17.65
2019-02-07T04:53:20.150Z,15.10
2019-02-07T04:56:07.452Z,17.12
2019-02-07T04:58:54.768Z,11.53
2019-02-07T05:04:30.951Z,15.43
2019-02-07T05:09:57.457Z,14.23
2019-02-07T05:12:44.777Z,12.70
2019-02-07T05:15:32.075Z,19.65
2019-02-07T05:18:19.387Z,14.83
2019-02-07T05:21:06.692Z,13.40
2019-02-07T05:29:08.895Z,13.88
2019-02-07T05:31:56.207Z,17.50
2019-02-07T05:37:18.866Z,18.87
2019-02-07T05:40:06.205Z,11.25
2019-02-07T05:45:42.401Z,13.70
2019-02-07T05:48:29.720Z,18.10
2019-02-07T05:51:17.030Z,11.40
2019-02-07T05:54:04.363Z,9.75
2019-02-07T05:56:51.764Z,16.60
2019-02-07T06:04:53.443Z,14.20
2019-02-07T06:07:40.745Z,8.73
2019-02-07T06:10:49.060Z,13.03
2019-02-07T06:16:25.242Z,16.48
2019-02-07T06:21:51.966Z,17.10
2019-02-07T06:24:39.288Z,10.65
2019-02-07T06:27:26.593Z,17.07
2019-02-07T06:30:33.297Z,10.70
2019-02-07T06:36:09.806Z,10.23
2019-02-07T06:38:57.107Z,13.72
2019-02-07T06:41:44.430Z,13.45
2019-02-07T06:44:51.120Z,11.50
2019-02-07T06:47:38.445Z,10.60
2019-02-07T06:53:26.488Z,10.98
2019-02-07T06:56:13.889Z,12.33
2019-02-07T06:59:01.202Z,11.45
2019-02-07T07:09:45.814Z,7.90
2019-02-07T07:12:33.149Z,11.12
2019-02-07T07:18:09.359Z,13.45
2019-02-07T07:23:45.552Z,10.50
2019-02-07T07:31:43.019Z,12.18
2019-02-07T07:34:30.323Z,13.43
2019-02-07T07:37:17.659Z,11.83
2019-02-07T07:40:04.989Z,11.63
2019-02-07T07:42:52.299Z,11.00
2019-02-07T07:45:39.602Z,10.70
2019-02-07T07:48:26.919Z,13.43
2019-02-07T07:51:14.590Z,14.50
2019-02-07T07:54:01.927Z,8.75
2019-02-07T07:56:49.251Z,10.85
2019-02-07T08:02:25.443Z,12.82
2019-02-07T08:08:01.636Z,6.87
2019-02-07T08:16:13.356Z,12.63
2019-02-07T08:19:00.689Z,9.13
2019-02-07T08:24:36.884Z,8.70
2019-02-07T08:27:24.289Z,14.98
2019-02-07T08:30:11.598Z,8.08
2019-02-07T08:35:47.791Z,10.35
2019-02-07T08:38:35.111Z,13.53
2019-02-07T08:44:14.052Z,9.18
2019-02-07T08:47:00.347Z,13.35
2019-02-07T08:49:47.949Z,12.45
2019-02-07T08:52:35.258Z,11.68
2019-02-07T08:55:22.568Z,12.18
2019-02-07T08:58:09.894Z,12.80
2019-02-07T09:00:57.229Z,11.40
2019-02-07T09:06:33.500Z,9.10
2019-02-07T09:09:20.996Z,11.95
2019-02-07T09:14:57.186Z,10.23
2019-02-07T09:20:33.397Z,12.40
2019-02-07T09:23:20.695Z,9.98
2019-02-07T09:26:08.013Z,8.15
2019-02-07T09:31:44.193Z,9.90
2019-02-07T09:34:31.768Z,12.43
2019-02-07T09:42:33.441Z,9.83
2019-02-07T09:45:20.766Z,10.68
2019-02-07T09:48:08.090Z,11.10
2019-02-07T09:50:55.401Z,8.23
2019-02-07T09:53:42.717Z,11.03
2019-02-07T09:56:30.031Z,13.13
2019-02-07T09:59:17.347Z,9.68
2019-02-07T10:02:05.029Z,8.13
2019-02-07T10:04:52.337Z,11.08
2019-02-07T10:07:39.653Z,6.90
2019-02-07T10:13:27.751Z,10.98
2019-02-07T10:16:15.068Z,7.67
2019-02-07T10:19:02.371Z,11.18
2019-02-07T10:24:28.926Z,9.10
2019-02-07T10:27:16.246Z,11.28
2019-02-07T10:30:03.558Z,12.28
2019-02-07T10:32:50.897Z,11.83
2019-02-07T10:35:38.227Z,11.03
2019-02-07T10:38:25.552Z,10.23
2019-02-07T10:41:12.856Z,10.48
2019-02-07T10:44:00.165Z,6.85
2019-02-07T10:46:47.481Z,8.30
2019-02-07T10:49:34.819Z,8.55
2019-02-07T10:52:22.135Z,10.55
2019-02-07T10:55:09.438Z,13.10
2019-02-07T11:00:56.924Z,9.23
2019-02-07T11:03:44.324Z,12.53
2019-02-07T11:06:31.625Z,12.00
2019-02-07T11:09:18.969Z,11.45
2019-02-07T11:12:06.505Z,11.93
2019-02-07T11:17:29.117Z,10.90
2019-02-07T11:20:16.430Z,12.78
2019-02-07T11:25:42.881Z,10.35
2019-02-07T11:31:05.376Z,10.60
2019-02-07T11:33:52.980Z,9.55
2019-02-07T11:36:40.280Z,8.83
2019-02-07T11:42:28.891Z,9.63
2019-02-07T11:45:16.201Z,9.53
2019-02-07T11:48:03.501Z,15.75
2019-02-07T11:53:30.089Z,9.35
2019-02-07T11:56:17.405Z,14.45
2019-02-07T11:59:05.068Z,9.10
2019-02-07T12:02:08.804Z,14.53
2019-02-07T12:04:48.885Z,10.88
2019-02-07T12:07:36.190Z,10.93
2019-02-07T12:10:44.497Z,11.60
2019-02-07T12:13:31.799Z,9.83
2019-02-07T12:16:19.192Z,10.65
2019-02-07T12:19:17.517Z,10.88
2019-02-07T12:21:55.596Z,9.38
2019-02-07T12:24:42.896Z,10.50
2019-02-07T12:27:30.229Z,10.72
2019-02-07T12:30:17.571Z,11.68
2019-02-07T12:33:04.878Z,6.70
2019-02-07T12:35:52.191Z,9.85
2019-02-07T12:38:39.525Z,11.70
2019-02-07T12:41:26.858Z,8.05
2019-02-07T12:44:14.161Z,10.48
2019-02-07T12:47:01.475Z,7.65
2019-02-07T12:49:48.788Z,10.85
2019-02-07T12:52:36.142Z,8.93
2019-02-07T13:01:25.360Z,8.93
2019-02-07T13:04:12.671Z,9.33
2019-02-07T13:06:59.987Z,9.45
2019-02-07T13:09:47.288Z,7.90
2019-02-07T13:18:07.970Z,8.68
2019-02-07T13:26:35.379Z,7.70
2019-02-07T13:29:22.675Z,7.80
2019-02-07T13:32:10.043Z,9.03
2019-02-07T13:34:57.320Z,6.83
2019-02-07T13:37:44.813Z,6.47
2019-02-07T13:40:32.216Z,10.00
2019-02-07T13:43:19.537Z,7.95
2019-02-07T13:46:06.837Z,4.83
2019-02-07T13:51:33.511Z,4.05
2019-02-07T13:54:20.827Z,2.47
2019-02-07T13:59:46.942Z,2.85
2019-02-07T14:02:34.237Z,1.92
2019-02-07T14:05:21.540Z,3.58
2019-02-07T14:08:08.852Z,2.75
2019-02-07T14:10:56.426Z,2.90
2019-02-07T14:16:18.866Z,4.80
2019-02-07T14:32:06.128Z,2.72
2019-02-07T14:34:53.445Z,3.80
2019-02-07T14:37:40.738Z,3.90
2019-02-07T14:43:28.530Z,4.05
2019-02-07T14:46:15.853Z,6.22
2019-02-07T14:48:45.256Z,1.77
2019-02-07T14:51:14.023Z,2.95
2019-02-07T14:53:42.233Z,11.12
2019-02-07T14:56:10.423Z,4.53
2019-02-07T14:58:38.626Z,1.85
2019-02-07T15:01:08.557Z,6.30
2019-02-07T15:03:36.774Z,4.35
2019-02-07T15:06:04.961Z,4.28
2019-02-07T15:08:33.173Z,2.55
2019-02-07T15:11:01.380Z,2.83
2019-02-07T15:13:29.570Z,4.37
2019-02-07T15:15:57.787Z,3.72
2019-02-07T15:18:46.153Z,3.20
2019-02-07T15:24:28.812Z,2.47
2019-02-07T15:26:57.004Z,3.25
2019-02-07T15:30:05.320Z,2.85
2019-02-07T15:32:33.531Z,2.83
2019-02-07T15:35:01.733Z,3.58
2019-02-07T15:37:29.914Z,2.30
2019-02-07T15:39:58.109Z,3.67
2019-02-07T15:42:26.297Z,2.72
2019-02-07T15:44:54.791Z,3.08
2019-02-07T15:47:22.983Z,4.45
2019-02-07T15:49:51.191Z,4.40
2019-02-07T15:52:19.379Z,1.75
2019-02-07T15:54:47.585Z,4.35
2019-02-07T15:57:15.797Z,2.42
2019-02-07T16:02:32.930Z,3.20
2019-02-07T16:05:01.193Z,2.70
2019-02-07T16:07:29.385Z,5.45
2019-02-07T16:09:57.578Z,2.60
2019-02-07T16:12:27.499Z,2.90
2019-02-07T16:14:55.710Z,4.22
2019-02-07T16:17:23.909Z,2.98
2019-02-07T16:19:52.119Z,2.90
2019-02-07T16:22:20.318Z,4.28
2019-02-07T16:24:48.528Z,4.05
2019-02-07T16:27:18.451Z,1.55
2019-02-07T16:29:46.633Z,4.47
2019-02-07T16:32:14.831Z,3.12
2019-02-07T16:34:43.015Z,4.40
2019-02-07T16:37:11.287Z,5.35
2019-02-07T16:39:39.470Z,1.70
2019-02-07T16:42:07.676Z,8.40
2019-02-07T16:44:37.582Z,3.17
2019-02-07T16:47:05.805Z,2.30
2019-02-07T16:49:34.012Z,2.62
2019-02-07T16:52:02.248Z,3.42
2019-02-07T16:54:30.461Z,3.92
2019-02-07T16:56:58.655Z,1.40
2019-02-07T16:59:28.574Z,2.62
2019-02-07T17:01:56.777Z,4.15
2019-02-07T17:04:24.962Z,1.72
2019-02-07T17:06:53.174Z,1.45
2019-02-07T17:12:10.260Z,2.40
2019-02-07T17:14:38.439Z,2.65
2019-02-07T17:17:06.640Z,4.30
2019-02-07T17:19:34.819Z,3.08
2019-02-07T17:22:03.022Z,1.02
2019-02-07T17:24:31.194Z,2.20
2019-02-07T17:26:59.388Z,2.50
2019-02-07T17:29:27.577Z,2.85
2019-02-07T17:31:55.769Z,2.95
2019-02-07T17:34:23.948Z,2.00
2019-02-07T17:36:52.164Z,3.00
2019-02-07T17:39:20.355Z,1.87
2019-02-07T17:41:48.548Z,2.25
2019-02-07T17:44:18.486Z,2.77
2019-02-07T17:46:46.671Z,2.80
2019-02-07T17:49:14.873Z,1.55
2019-02-07T17:51:43.081Z,1.80
2019-02-07T17:54:18.670Z,2.92
2019-02-07T17:56:41.160Z,2.80
2019-02-07T17:59:09.375Z,2.83
2019-02-07T18:01:39.286Z,2.40
2019-02-07T18:04:07.482Z,1.85
2019-02-07T18:06:35.668Z,1.72
2019-02-07T18:09:43.970Z,2.52
2019-02-07T18:12:12.183Z,1.70
2019-02-07T18:14:40.362Z,4.12
2019-02-07T18:17:08.544Z,1.77
2019-02-07T18:19:36.733Z,1.40
2019-02-07T18:22:04.918Z,1.52
2019-02-07T18:24:33.140Z,1.98
2019-02-07T18:27:01.338Z,2.92
2019-02-07T18:29:29.533Z,2.65
2019-02-07T18:31:57.716Z,1.37
2019-02-07T18:34:26.026Z,5.47
2019-02-07T18:36:54.211Z,1.45
2019-02-07T18:39:22.430Z,2.67
2019-02-07T18:41:52.340Z,2.42
2019-02-07T18:44:20.532Z,2.08
2019-02-07T18:46:48.727Z,1.15
2019-02-07T18:49:16.947Z,1.65
2019-02-07T18:51:46.013Z,2.95
2019-02-07T18:54:15.095Z,1.98
2019-02-07T18:56:43.296Z,1.65
2019-02-07T18:59:13.209Z,2.67
2019-02-07T19:01:41.389Z,2.70
2019-02-07T19:04:09.583Z,2.62
2019-02-07T19:06:57.193Z,2.67
2019-02-07T19:09:25.385Z,2.58
2019-02-07T19:11:53.564Z,3.58
2019-02-07T19:14:21.785Z,4.00
2019-02-07T19:16:49.970Z,3.75
2019-02-07T19:19:18.167Z,2.83
2019-02-07T19:21:56.514Z,2.55
2019-02-07T19:24:16.259Z,1.42
2019-02-07T19:26:44.445Z,2.05
2019-02-07T19:29:12.691Z,7.58
2019-02-07T19:32:00.387Z,3.72
2019-02-07T19:34:28.583Z,3.30
2019-02-07T19:36:56.761Z,4.35
2019-02-07T19:39:24.999Z,1.67
2019-02-07T19:41:53.181Z,2.42
2019-02-07T19:44:21.390Z,2.25
2019-02-07T19:46:49.609Z,2.75
2019-02-07T19:49:17.779Z,3.05
2019-02-07T19:51:45.974Z,2.55
2019-02-07T19:54:14.161Z,2.27
2019-02-07T19:56:44.094Z,2.12
2019-02-07T19:59:12.273Z,1.37
2019-02-07T20:01:40.473Z,1.20
2019-02-07T20:04:08.670Z,2.55
2019-02-07T20:06:36.886Z,2.35
2019-02-07T20:12:18.581Z,3.80
2019-02-07T20:14:46.828Z,2.95
2019-02-07T20:17:15.043Z,2.12
2019-02-07T20:19:43.220Z,3.35
2019-02-07T20:22:20.319Z,2.55
2019-02-07T20:24:46.045Z,2.67
2019-02-07T20:27:12.965Z,1.72
2019-02-07T20:29:41.148Z,1.82
2019-02-07T20:32:09.350Z,2.47
2019-02-07T20:34:37.535Z,2.65
2019-02-07T20:37:05.732Z,2.30
2019-02-07T20:39:35.662Z,2.15
2019-02-07T20:42:03.883Z,3.70
2019-02-07T20:44:32.080Z,2.77
2019-02-07T20:47:00.267Z,1.85
2019-02-07T20:49:28.436Z,1.62
2019-02-07T20:51:56.629Z,1.50
2019-02-07T20:54:24.809Z,4.35
2019-02-07T20:56:54.750Z,2.30
2019-02-07T20:59:22.933Z,1.95
2019-02-07T21:02:31.243Z,2.20
2019-02-07T21:05:01.143Z,1.98
2019-02-07T21:07:29.357Z,2.55
2019-02-07T21:09:57.543Z,1.65
2019-02-07T21:12:25.738Z,1.82
2019-02-07T21:14:53.940Z,1.27
2019-02-07T21:17:22.142Z,2.33
2019-02-07T21:19:50.320Z,1.35
2019-02-07T21:22:20.232Z,1.92
2019-02-07T21:24:48.412Z,1.50
2019-02-07T21:27:16.608Z,1.20
2019-02-07T21:30:15.783Z,1.85
2019-02-07T21:32:44.355Z,2.33
2019-02-07T21:35:52.650Z,3.42
2019-02-07T21:38:20.841Z,1.42
2019-02-07T21:40:49.034Z,2.60
2019-02-07T21:43:17.233Z,2.12
2019-02-07T21:45:45.411Z,2.47
2019-02-07T21:48:13.616Z,1.95
2019-02-07T21:50:41.801Z,2.33
2019-02-07T21:53:10.003Z,1.95
2019-02-07T21:58:51.829Z,1.52
2019-02-07T22:01:20.014Z,2.77
2019-02-07T22:03:48.212Z,1.77
2019-02-07T22:06:18.110Z,5.15
2019-02-07T22:08:46.302Z,3.30
2019-02-07T22:11:14.480Z,1.35
2019-02-07T22:13:42.679Z,1.45
2019-02-07T22:16:10.881Z,1.52
2019-02-07T22:18:39.099Z,2.37
2019-02-07T22:21:07.279Z,1.10
2019-02-07T22:23:37.218Z,3.58
2019-02-07T22:26:05.435Z,1.72
2019-02-07T22:28:33.637Z,3.85
2019-02-07T22:31:01.817Z,2.35
2019-02-07T22:33:30.011Z,2.42
2019-02-07T22:35:58.194Z,2.42
2019-02-07T22:38:26.364Z,1.35
2019-02-07T22:40:54.586Z,1.35
2019-02-07T22:43:22.740Z,1.67
2019-02-07T22:45:50.928Z,4.40
2019-02-07T22:48:19.122Z,2.47
2019-02-07T22:50:47.322Z,2.58
2019-02-07T22:53:15.501Z,3.75
2019-02-07T22:56:03.141Z,1.92
2019-02-07T22:58:31.335Z,3.77
2019-02-07T23:01:19.292Z,2.05
2019-02-07T23:03:49.191Z,1.70
2019-02-07T23:06:17.412Z,1.62
2019-02-07T23:08:45.604Z,1.50
2019-02-07T23:11:13.829Z,4.12
2019-02-07T23:13:42.011Z,1.62
2019-02-07T23:16:10.208Z,2.37
2019-02-07T23:18:38.410Z,2.10
2019-02-07T23:21:08.346Z,0.95
2019-02-07T23:23:36.551Z,2.58
2019-02-07T23:26:04.819Z,0.90
2019-02-07T23:28:33.002Z,2.30
2019-02-07T23:31:01.201Z,2.45
2019-02-07T23:33:29.376Z,0.90
2019-02-07T23:35:57.598Z,1.47
2019-02-07T23:38:25.802Z,2.25
2019-02-07T23:40:53.982Z,2.12
2019-02-07T23:43:22.201Z,2.27
2019-02-07T23:45:50.403Z,2.17
2019-02-07T23:48:18.611Z,2.10
2019-02-07T23:50:46.779Z,2.77
2019-02-07T23:53:15.485Z,1.85
2019-02-07T23:55:44.899Z,1.45
2019-02-07T23:58:13.089Z,0.90
